Time;durP1;ratioP1;P1;durP2;ratioP2;P2;SDS_P1;SDS_P2;PMS_P1;PMS_P2;Temp;Humidity;BMP_temperature;BMP_pressure;BME280_temperature;BME280_humidity;BME280_pressure;Samples;Min_cycle;Max_cycle;Signal;HPM_P1;HPM_P2
2023/06/18 00:01:05;;;;;;;26.10;23.33;;;17.30;99.90;;;;;;5012700;28;20088;-64
2023/06/18 00:03:31;;;;;;;23.00;19.55;;;17.20;99.90;;;;;;5013755;28;20065;-64
2023/06/18 00:06:00;;;;;;;21.88;19.55;;;17.00;99.90;;;;;;5014078;28;20077;-64
2023/06/18 00:08:25;;;;;;;15.60;13.90;;;16.90;99.90;;;;;;5013025;28;20038;-64
2023/06/18 00:10:52;;;;;;;18.10;16.15;;;16.80;99.90;;;;;;4996428;28;20104;-64
2023/06/18 00:13:18;;;;;;;24.15;20.20;;;16.90;99.90;;;;;;5013988;28;20116;-64
2023/06/18 00:15:44;;;;;;;27.38;24.55;;;16.90;99.90;;;;;;5014099;28;20502;-64
2023/06/18 00:18:10;;;;;;;17.63;15.50;;;16.70;99.90;;;;;;5012598;28;20540;-64
2023/06/18 00:20:36;;;;;;;16.50;14.73;;;16.60;99.90;;;;;;5012737;28;20049;-64
2023/06/18 00:23:02;;;;;;;17.30;15.02;;;16.60;99.90;;;;;;5012588;28;20117;-64
2023/06/18 00:25:28;;;;;;;17.35;14.30;;;16.50;99.90;;;;;;5013936;28;20168;-64
2023/06/18 00:27:55;;;;;;;17.05;15.02;;;16.50;99.90;;;;;;5013881;28;20116;-64
2023/06/18 00:30:21;;;;;;;18.98;16.52;;;16.60;99.90;;;;;;5013951;28;20482;-64
2023/06/18 00:32:48;;;;;;;18.83;15.63;;;16.70;99.90;;;;;;5012204;28;20124;-64
2023/06/18 00:35:14;;;;;;;18.52;15.65;;;16.70;99.90;;;;;;5012742;28;20034;-64
2023/06/18 00:37:44;;;;;;;21.58;18.73;;;16.70;99.90;;;;;;5013898;28;20409;-64
2023/06/18 00:40:14;;;;;;;23.98;21.48;;;16.70;99.90;;;;;;5012222;28;20069;-64
2023/06/18 00:42:40;;;;;;;23.70;20.15;;;16.70;99.90;;;;;;5012147;28;20053;-64
2023/06/18 00:45:11;;;;;;;16.52;14.40;;;16.60;99.90;;;;;;5013698;28;20490;-63
2023/06/18 00:47:44;;;;;;;19.02;15.60;;;16.60;99.90;;;;;;5013481;28;20494;-64
2023/06/18 00:50:15;;;;;;;19.67;17.15;;;16.50;99.90;;;;;;5012055;28;20046;-63
2023/06/18 00:52:44;;;;;;;20.58;18.40;;;16.50;99.90;;;;;;5013354;28;20052;-63
2023/06/18 00:55:17;;;;;;;23.88;21.33;;;16.40;99.90;;;;;;5013567;28;20086;-64
2023/06/18 00:57:49;;;;;;;35.42;30.13;;;16.40;99.90;;;;;;5013555;28;20054;-63
2023/06/18 01:00:21;;;;;;;17.80;15.57;;;16.30;99.90;;;;;;5012002;28;20064;-63
2023/06/18 01:02:49;;;;;;;25.17;21.27;;;16.20;99.90;;;;;;5012196;28;20069;-63
2023/06/18 01:05:16;;;;;;;21.05;18.27;;;16.20;99.90;;;;;;5012187;28;20086;-64
2023/06/18 01:07:42;;;;;;;29.55;26.27;;;16.20;99.90;;;;;;5013436;28;20541;-64
2023/06/18 01:10:11;;;;;;;21.98;19.17;;;16.10;99.90;;;;;;5013139;28;20104;-64
2023/06/18 01:12:36;;;;;;;18.83;16.13;;;16.00;99.90;;;;;;5012049;28;20089;-64
2023/06/18 01:15:03;;;;;;;25.42;22.77;;;16.00;99.90;;;;;;4998303;28;20085;-64
2023/06/18 01:17:33;;;;;;;22.58;19.38;;;16.10;99.90;;;;;;5017516;28;20038;-64
2023/06/18 01:20:09;;;;;;;20.33;18.13;;;16.10;99.90;;;;;;5017138;28;20121;-64
2023/06/18 01:22:57;;;;;;;20.00;17.92;;;16.20;99.90;;;;;;5017022;28;20045;-64
2023/06/18 01:25:26;;;;;;;21.48;19.17;;;16.10;99.90;;;;;;5017310;28;20069;-64
2023/06/18 01:27:53;;;;;;;26.50;23.25;;;16.20;99.90;;;;;;5017005;28;20101;-64
2023/06/18 01:30:20;;;;;;;24.50;20.77;;;16.20;99.90;;;;;;5017216;28;20052;-64
2023/06/18 01:32:46;;;;;;;19.77;17.67;;;15.90;99.90;;;;;;5016793;28;20042;-64
2023/06/18 01:35:15;;;;;;;26.95;23.73;;;15.80;99.90;;;;;;5016784;28;20125;-64
2023/06/18 01:38:00;;;;;;;20.27;17.48;;;15.70;99.90;;;;;;5016799;28;20038;-64
2023/06/18 01:40:43;;;;;;;18.83;16.77;;;15.60;99.90;;;;;;5016927;28;20042;-64
2023/06/18 01:43:35;;;;;;;41.90;34.47;;;15.70;99.90;;;;;;5016725;28;20394;-64
2023/06/18 01:46:02;;;;;;;;;;;15.80;99.90;;;;;;5017370;28;20441;-64
2023/06/18 01:48:44;;;;;;;21.00;18.85;;;15.60;99.90;;;;;;5015625;28;20043;-64
2023/06/18 01:51:11;;;;;;;;;;;15.70;99.90;;;;;;5017560;28;20117;-64
2023/06/18 01:53:37;;;;;;;20.80;17.85;;;15.70;99.90;;;;;;5015505;28;20370;-64
2023/06/18 01:56:05;;;;;;;23.83;19.92;;;15.80;99.90;;;;;;5015121;28;20073;-64
2023/06/18 01:58:33;;;;;;;42.38;33.60;;;15.80;99.90;;;;;;5016704;28;20482;-64
2023/06/18 02:00:59;;;;;;;39.97;33.47;;;15.80;99.90;;;;;;5016205;28;20045;-64
2023/06/18 02:03:25;;;;;;;34.40;29.75;;;15.60;99.90;;;;;;5016219;28;20116;-64
2023/06/18 02:05:51;;;;;;;20.85;17.98;;;15.50;99.90;;;;;;5016250;28;20038;-64
2023/06/18 02:08:17;;;;;;;23.15;19.48;;;15.50;99.90;;;;;;5016499;28;20487;-64
2023/06/18 02:10:43;;;;;;;22.40;18.85;;;15.50;99.90;;;;;;5016290;28;20494;-64
2023/06/18 02:13:10;;;;;;;19.15;16.92;;;15.60;99.90;;;;;;5016082;28;20072;-64
2023/06/18 02:15:36;;;;;;;21.10;18.75;;;15.70;99.90;;;;;;5016360;28;20124;-64
2023/06/18 02:18:02;;;;;;;20.30;18.00;;;15.70;99.90;;;;;;5016055;28;20056;-64
2023/06/18 02:20:28;;;;;;;21.33;18.88;;;15.70;99.90;;;;;;5014799;28;20046;-64
2023/06/18 02:22:54;;;;;;;19.85;17.27;;;15.80;99.90;;;;;;5016161;28;20077;-64
2023/06/18 02:25:28;;;;;;;20.67;18.48;;;15.80;99.90;;;;;;5015767;28;20490;-63
2023/06/18 02:27:57;;;;;;;47.90;36.92;;;15.80;99.90;;;;;;5015831;28;20042;-63
2023/06/18 02:30:25;;;;;;;20.15;17.95;;;15.70;99.90;;;;;;5015733;28;20045;-63
2023/06/18 02:32:50;;;;;;;20.15;17.95;;;15.60;99.90;;;;;;5016020;28;20117;-64
2023/06/18 02:35:16;;;;;;;21.02;17.90;;;15.60;99.90;;;;;;5014541;28;20133;-64
2023/06/18 02:37:42;;;;;;;30.48;26.35;;;15.60;99.90;;;;;;5014367;28;20523;-64
2023/06/18 02:40:11;;;;;;;19.40;17.35;;;15.50;99.90;;;;;;5014403;28;20054;-63
2023/06/18 02:42:37;;;;;;;29.70;26.27;;;15.50;99.90;;;;;;5015870;28;20042;-64
2023/06/18 02:45:04;;;;;;;21.45;18.02;;;15.50;99.90;;;;;;5015756;28;20117;-65
2023/06/18 02:47:29;;;;;;;19.48;17.38;;;15.50;99.90;;;;;;5015803;28;20108;-64
2023/06/18 02:49:55;;;;;;;27.75;24.13;;;15.50;99.90;;;;;;5015421;28;20037;-65
2023/06/18 02:52:21;;;;;;;20.23;18.02;;;15.40;99.90;;;;;;5014203;28;20045;-66
2023/06/18 02:54:46;;;;;;;22.48;19.85;;;15.30;99.90;;;;;;5015707;28;20073;-65
2023/06/18 02:57:12;;;;;;;32.25;28.70;;;15.30;99.90;;;;;;4997749;28;20046;-65
2023/06/18 02:59:38;;;;;;;22.98;19.88;;;15.30;99.90;;;;;;5015256;28;20065;-64
2023/06/18 03:02:05;;;;;;;27.08;24.17;;;15.30;99.90;;;;;;5015379;28;20038;-65
2023/06/18 03:04:31;;;;;;;19.70;17.17;;;15.20;99.90;;;;;;5014067;28;20045;-64
2023/06/18 03:06:59;;;;;;;35.25;30.27;;;15.20;99.90;;;;;;5014124;28;20053;-65
2023/06/18 03:09:25;;;;;;;29.42;26.25;;;15.10;99.90;;;;;;5014139;28;20033;-64
2023/06/18 03:11:51;;;;;;;38.47;32.30;;;15.00;99.90;;;;;;5015322;28;20113;-64
2023/06/18 03:14:16;;;;;;;25.60;22.85;;;14.90;99.90;;;;;;5014866;28;20088;-65
2023/06/18 03:16:42;;;;;;;24.35;21.77;;;14.80;99.90;;;;;;5014965;28;20050;-64
2023/06/18 03:19:08;;;;;;;30.50;27.20;;;14.80;99.90;;;;;;5014886;28;20038;-65
2023/06/18 03:21:34;;;;;;;25.67;22.98;;;14.80;99.90;;;;;;5015113;28;20042;-64
2023/06/18 03:24:00;;;;;;;21.48;19.17;;;14.80;99.90;;;;;;5013693;28;20084;-65
2023/06/18 03:26:26;;;;;;;21.95;19.60;;;14.80;99.90;;;;;;5014684;28;20042;-64
2023/06/18 03:28:52;;;;;;;22.95;20.10;;;14.80;99.90;;;;;;4997157;28;20092;-64
2023/06/18 03:31:17;;;;;;;28.45;24.70;;;14.90;99.90;;;;;;5015017;28;20092;-65
2023/06/18 03:33:43;;;;;;;23.40;20.42;;;15.00;99.90;;;;;;5014590;28;20504;-65
2023/06/18 03:36:09;;;;;;;20.38;18.15;;;15.00;99.90;;;;;;5014721;28;20056;-63
2023/06/18 03:38:35;;;;;;;26.23;23.05;;;14.90;99.90;;;;;;4996668;28;20085;-64
2023/06/18 03:41:01;;;;;;;40.30;32.97;;;15.00;99.90;;;;;;5014411;28;20052;-65
2023/06/18 03:43:29;;;;;;;22.60;19.73;;;15.00;99.90;;;;;;5014808;28;20038;-65
2023/06/18 03:45:55;;;;;;;19.73;17.40;;;14.90;99.90;;;;;;5014576;28;20044;-65
2023/06/18 03:48:21;;;;;;;20.98;18.45;;;14.80;99.90;;;;;;5013403;28;20402;-65
2023/06/18 03:50:46;;;;;;;23.27;20.77;;;14.90;99.90;;;;;;5014362;28;20045;-65
2023/06/18 03:53:12;;;;;;;33.22;29.30;;;15.00;99.90;;;;;;5014086;28;20073;-65
2023/06/18 03:55:38;;;;;;;22.13;19.80;;;14.90;99.90;;;;;;5014292;28;20053;-65
2023/06/18 03:58:04;;;;;;;24.98;22.20;;;14.80;99.90;;;;;;5014177;28;20057;-63
2023/06/18 04:00:30;;;;;;;29.20;26.00;;;14.80;99.90;;;;;;5014308;28;20049;-64
2023/06/18 04:02:56;;;;;;;21.73;19.02;;;14.90;99.90;;;;;;5014079;28;20125;-64
2023/06/18 04:05:22;;;;;;;23.17;20.25;;;14.90;99.90;;;;;;5014000;28;20073;-64
2023/06/18 04:07:48;;;;;;;25.15;22.50;;;14.90;99.90;;;;;;5013966;28;20037;-64
2023/06/18 04:10:14;;;;;;;25.95;23.23;;;14.90;99.90;;;;;;5012743;28;20042;-64
2023/06/18 04:12:40;;;;;;;25.88;23.10;;;14.90;99.90;;;;;;5012695;28;20461;-64
2023/06/18 04:15:06;;;;;;;26.38;23.08;;;14.90;99.90;;;;;;5013926;28;20046;-63
2023/06/18 04:17:39;;;;;;;23.77;21.27;;;14.80;99.90;;;;;;5014084;28;20034;-64
2023/06/18 04:20:06;;;;;;;28.92;25.85;;;14.90;99.90;;;;;;5012465;28;20041;-64
2023/06/18 04:22:32;;;;;;;27.23;23.90;;;15.00;99.90;;;;;;5013789;28;20044;-64
2023/06/18 04:24:57;;;;;;;25.45;22.75;;;15.00;99.90;;;;;;5012670;28;20033;-63
2023/06/18 04:27:23;;;;;;;28.63;25.05;;;15.00;99.90;;;;;;5013997;28;20037;-65
2023/06/18 04:29:49;;;;;;;24.13;21.58;;;15.00;99.90;;;;;;5013676;28;20052;-66
2023/06/18 04:32:14;;;;;;;26.48;23.65;;;15.10;99.90;;;;;;5013684;28;20049;-66
2023/06/18 04:34:40;;;;;;;34.00;29.40;;;15.10;99.90;;;;;;5013831;28;20038;-66
2023/06/18 04:37:06;;;;;;;34.10;29.13;;;15.20;99.90;;;;;;5013519;28;20482;-65
2023/06/18 04:39:31;;;;;;;35.30;30.70;;;15.20;99.90;;;;;;4995981;28;20074;-65
2023/06/18 04:41:57;;;;;;;40.50;32.70;;;15.20;99.90;;;;;;5013664;28;20060;-64
2023/06/18 04:44:23;;;;;;;39.17;32.45;;;15.30;99.90;;;;;;5012539;28;20045;-64
2023/06/18 04:46:49;;;;;;;33.85;29.58;;;15.20;99.90;;;;;;5012609;28;20104;-64
2023/06/18 04:49:15;;;;;;;31.92;27.77;;;15.30;99.90;;;;;;5011250;28;20046;-64
2023/06/18 04:51:42;;;;;;;38.63;32.92;;;15.40;99.90;;;;;;5013663;28;20038;-64
2023/06/18 04:54:08;;;;;;;33.70;30.02;;;15.30;99.90;;;;;;5012387;28;20402;-63
2023/06/18 04:56:34;;;;;;;29.23;25.65;;;15.30;99.90;;;;;;5013392;28;20042;-64
2023/06/18 04:59:00;;;;;;;29.88;26.65;;;15.40;99.90;;;;;;5012129;28;20049;-64
2023/06/18 05:01:26;;;;;;;32.35;28.73;;;15.50;99.90;;;;;;5013544;28;20069;-64
2023/06/18 05:03:52;;;;;;;32.53;28.95;;;15.60;99.90;;;;;;5012340;28;20118;-64
2023/06/18 05:06:18;;;;;;;33.85;30.20;;;15.80;99.90;;;;;;5013445;28;20541;-63
2023/06/18 05:08:44;;;;;;;28.85;25.73;;;15.90;99.90;;;;;;5013226;28;20172;-64
2023/06/18 05:11:10;;;;;;;32.92;28.65;;;16.10;99.90;;;;;;5013069;28;20049;-64
2023/06/18 05:13:35;;;;;;;33.25;29.65;;;16.30;99.90;;;;;;4995368;28;20072;-64
2023/06/18 05:16:01;;;;;;;37.20;31.25;;;16.50;99.90;;;;;;5013141;28;20407;-64
2023/06/18 05:18:27;;;;;;;34.75;30.98;;;16.80;99.90;;;;;;5013379;28;20042;-66
2023/06/18 05:20:53;;;;;;;32.35;28.38;;;16.90;99.90;;;;;;5013162;28;20132;-64
2023/06/18 05:23:18;;;;;;;33.65;30.02;;;16.80;99.90;;;;;;5013361;28;20073;-64
2023/06/18 05:25:44;;;;;;;32.90;29.27;;;17.20;99.90;;;;;;5011818;28;20038;-64
2023/06/18 05:28:10;;;;;;;32.17;28.67;;;17.60;99.90;;;;;;5012970;28;20081;-64
2023/06/18 05:30:36;;;;;;;32.53;29.17;;;17.90;99.90;;;;;;5013167;28;20041;-66
2023/06/18 05:33:01;;;;;;;31.52;28.13;;;18.20;99.90;;;;;;5013239;28;20042;-65
2023/06/18 05:35:27;;;;;;;36.40;31.20;;;18.20;99.90;;;;;;5011783;28;20065;-65
2023/06/18 05:37:53;;;;;;;33.58;29.95;;;18.20;99.90;;;;;;5013133;28;20070;-65
2023/06/18 05:40:19;;;;;;;35.80;32.03;;;18.10;99.90;;;;;;5011764;28;20041;-65
2023/06/18 05:42:46;;;;;;;33.72;30.08;;;17.90;99.90;;;;;;5013061;28;20111;-68
2023/06/18 05:45:11;;;;;;;32.25;28.75;;;17.80;99.90;;;;;;5011505;28;20042;-65
2023/06/18 05:47:37;;;;;;;35.67;31.90;;;18.30;99.90;;;;;;5013176;28;20088;-64
2023/06/18 05:50:03;;;;;;;34.70;31.08;;;18.50;99.90;;;;;;5012578;28;20046;-64
2023/06/18 05:52:29;;;;;;;38.90;34.55;;;18.90;99.90;;;;;;5011485;28;20045;-64
2023/06/18 05:54:55;;;;;;;33.63;30.02;;;18.80;99.90;;;;;;5012991;28;20046;-66
2023/06/18 05:57:20;;;;;;;35.83;31.45;;;19.00;99.90;;;;;;5012753;28;20037;-66
2023/06/18 05:59:48;;;;;;;34.25;30.63;;;19.40;99.90;;;;;;5011836;28;20164;-66
2023/06/18 06:02:14;;;;;;;34.17;30.52;;;19.90;99.90;;;;;;5016532;28;20046;-66
2023/06/18 06:04:39;;;;;;;36.00;31.33;;;20.50;99.90;;;;;;5016612;28;20232;-64
2023/06/18 06:07:05;;;;;;;34.42;29.75;;;20.80;99.90;;;;;;5016343;28;20077;-66
2023/06/18 06:09:31;;;;;;;34.58;30.77;;;20.80;99.90;;;;;;5016464;28;20056;-66
2023/06/18 06:11:57;;;;;;;32.72;29.17;;;21.30;99.90;;;;;;5016518;28;20038;-64
2023/06/18 06:14:22;;;;;;;32.30;28.50;;;21.30;99.90;;;;;;5014817;28;20053;-64
2023/06/18 06:16:50;;;;;;;31.52;28.13;;;21.60;99.90;;;;;;5016021;28;20057;-64
2023/06/18 06:19:16;;;;;;;32.03;28.33;;;22.10;99.90;;;;;;5015159;28;20049;-64
2023/06/18 06:21:42;;;;;;;32.55;28.45;;;22.30;99.90;;;;;;5016253;28;20042;-64
2023/06/18 06:24:07;;;;;;;32.28;28.05;;;22.60;99.90;;;;;;5015861;28;20037;-64
2023/06/18 06:26:33;;;;;;;35.55;31.08;;;22.20;99.90;;;;;;5016250;28;20084;-64
2023/06/18 06:29:00;;;;;;;29.65;25.10;;;22.20;99.90;;;;;;5015782;28;20124;-64
2023/06/18 06:31:26;;;;;;;29.35;26.15;;;22.70;99.90;;;;;;5016146;28;20042;-64
2023/06/18 06:33:52;;;;;;;30.60;27.15;;;23.10;99.90;;;;;;5014751;28;20042;-64
2023/06/18 06:36:18;;;;;;;29.85;26.63;;;22.90;99.90;;;;;;5016041;28;20048;-64
2023/06/18 06:38:44;;;;;;;27.13;24.23;;;23.00;99.90;;;;;;5014388;28;20478;-64
2023/06/18 06:41:09;;;;;;;27.73;24.42;;;22.60;99.90;;;;;;5015654;28;20076;-64
2023/06/18 06:43:35;;;;;;;28.58;24.95;;;22.80;99.90;;;;;;5014376;28;20085;-64
2023/06/18 06:46:01;;;;;;;27.88;24.10;;;23.10;99.90;;;;;;5014091;28;20187;-64
2023/06/18 06:48:26;;;;;;;26.83;23.30;;;22.90;99.90;;;;;;5015878;28;20034;-65
2023/06/18 06:50:53;;;;;;;24.65;22.05;;;22.80;99.90;;;;;;5015476;28;20129;-64
2023/06/18 06:53:19;;;;;;;27.25;23.00;;;23.00;99.90;;;;;;5014676;28;20045;-64
2023/06/18 06:55:44;;;;;;;27.08;23.63;;;23.00;99.90;;;;;;5015689;28;20037;-64
2023/06/18 06:58:10;;;;;;;26.85;23.73;;;23.00;99.90;;;;;;5015321;28;20045;-64
2023/06/18 07:00:36;;;;;;;25.95;23.15;;;23.20;99.90;;;;;;5015151;28;20033;-64
2023/06/18 07:03:02;;;;;;;24.75;21.88;;;22.90;99.90;;;;;;5014030;28;20054;-64
2023/06/18 07:05:28;;;;;;;25.73;22.90;;;23.50;99.90;;;;;;5015411;28;20045;-64
2023/06/18 07:07:53;;;;;;;27.02;22.60;;;23.60;99.90;;;;;;5015437;28;20045;-64
2023/06/18 07:10:19;;;;;;;24.00;21.05;;;23.90;99.80;;;;;;5015090;28;20047;-64
2023/06/18 07:12:45;;;;;;;24.10;21.30;;;23.90;99.90;;;;;;5013914;28;20054;-65
2023/06/18 07:15:11;;;;;;;24.70;20.80;;;24.10;99.90;;;;;;5013696;28;20124;-64
2023/06/18 07:17:36;;;;;;;22.70;19.92;;;24.80;99.70;;;;;;4997571;28;20052;-64
2023/06/18 07:20:02;;;;;;;22.02;19.13;;;25.40;98.90;;;;;;5013924;28;20038;-64
2023/06/18 07:22:28;;;;;;;26.35;20.55;;;25.80;97.40;;;;;;5015033;28;20049;-64
2023/06/18 07:24:56;;;;;;;22.67;19.45;;;25.30;95.60;;;;;;5013802;28;20402;-64
2023/06/18 07:27:23;;;;;;;23.88;19.40;;;25.50;95.40;;;;;;5015130;28;20053;-64
2023/06/18 07:29:49;;;;;;;20.42;17.50;;;25.80;95.70;;;;;;5014914;28;20049;-64
2023/06/18 07:32:14;;;;;;;22.40;17.55;;;26.10;95.10;;;;;;5013802;28;20038;-64
2023/06/18 07:34:40;;;;;;;20.70;16.80;;;26.30;93.60;;;;;;5014628;28;20449;-64
2023/06/18 07:37:06;;;;;;;18.42;16.30;;;26.50;92.60;;;;;;4997037;28;20052;-64
2023/06/18 07:39:32;;;;;;;19.23;16.63;;;26.90;92.50;;;;;;5014544;28;20077;-64
2023/06/18 07:41:57;;;;;;;17.98;16.08;;;27.20;91.80;;;;;;5014428;28;20042;-64
2023/06/18 07:44:23;;;;;;;20.67;18.27;;;27.50;90.30;;;;;;5014444;28;20048;-64
2023/06/18 07:46:50;;;;;;;20.13;16.60;;;26.90;89.40;;;;;;5014795;28;20109;-64
2023/06/18 07:49:16;;;;;;;18.85;16.38;;;27.10;89.10;;;;;;5014777;28;20042;-64
2023/06/18 07:51:43;;;;;;;20.75;18.05;;;27.10;88.00;;;;;;5014629;28;20126;-64
2023/06/18 07:54:09;;;;;;;18.75;15.32;;;26.50;88.30;;;;;;5013417;28;20041;-64
2023/06/18 07:56:34;;;;;;;17.60;15.10;;;26.80;90.00;;;;;;5014481;28;20450;-64
2023/06/18 07:59:00;;;;;;;19.63;14.93;;;27.40;89.30;;;;;;5014463;28;20040;-64
2023/06/18 08:01:26;;;;;;;18.35;15.52;;;27.00;88.30;;;;;;5014428;28;20088;-64
2023/06/18 08:03:51;;;;;;;16.10;14.00;;;27.00;87.50;;;;;;5012815;28;20133;-64
2023/06/18 08:06:17;;;;;;;17.77;15.88;;;27.20;88.30;;;;;;5012811;28;20037;-64
2023/06/18 08:08:43;;;;;;;16.92;14.02;;;27.40;87.20;;;;;;5013930;28;20040;-64
2023/06/18 08:11:09;;;;;;;15.73;13.80;;;27.50;88.40;;;;;;5014002;28;20037;-64
2023/06/18 08:13:34;;;;;;;15.77;13.48;;;27.80;83.90;;;;;;5013869;28;20056;-64
2023/06/18 08:16:00;;;;;;;17.13;14.65;;;27.50;85.40;;;;;;5014335;28;20050;-64
2023/06/18 08:18:26;;;;;;;16.85;13.43;;;27.60;82.90;;;;;;5012668;28;20529;-64
2023/06/18 08:20:54;;;;;;;16.40;13.25;;;27.80;83.70;;;;;;5013771;28;20048;-64
2023/06/18 08:23:19;;;;;;;18.63;13.70;;;28.10;83.90;;;;;;5013520;28;20050;-64
2023/06/18 08:25:45;;;;;;;15.82;13.55;;;28.50;82.90;;;;;;5013768;28;20038;-64
2023/06/18 08:28:11;;;;;;;15.07;13.00;;;28.70;80.00;;;;;;5013964;28;20040;-64
2023/06/18 08:30:37;;;;;;;18.30;13.18;;;28.80;79.00;;;;;;5013921;28;20155;-64
2023/06/18 08:33:03;;;;;;;16.85;13.23;;;28.90;78.80;;;;;;5012306;28;20410;-64
2023/06/18 08:35:28;;;;;;;17.02;12.90;;;28.80;74.70;;;;;;5013636;28;20084;-64
2023/06/18 08:37:54;;;;;;;14.95;11.63;;;28.50;75.40;;;;;;5013604;28;20042;-64
2023/06/18 08:40:26;;;;;;;13.98;10.90;;;28.30;76.70;;;;;;5013831;28;20091;-64
2023/06/18 08:42:52;;;;;;;12.90;11.00;;;28.80;75.60;;;;;;5013703;28;20068;-64
2023/06/18 08:45:18;;;;;;;24.52;11.63;;;29.20;72.40;;;;;;5013767;28;20042;-64
2023/06/18 08:47:49;;;;;;;13.75;11.27;;;29.40;71.30;;;;;;5013738;28;20073;-64
2023/06/18 08:50:19;;;;;;;13.70;10.65;;;29.50;69.90;;;;;;5012069;28;20050;-64
2023/06/18 08:52:48;;;;;;;12.23;9.40;;;29.40;68.20;;;;;;5013663;28;20052;-64
2023/06/18 08:55:17;;;;;;;12.98;10.00;;;29.90;67.80;;;;;;4995652;28;20045;-64
2023/06/18 08:58:09;;;;;;;9.30;7.60;;;30.00;66.90;;;;;;5012398;28;20042;-64
2023/06/18 09:00:35;;;;;;;;;;;30.20;60.80;;;;;;5013904;28;20117;-64
2023/06/18 09:03:01;;;;;;;9.30;7.30;;;30.30;58.40;;;;;;5013484;28;20429;-64
2023/06/18 09:05:27;;;;;;;10.90;7.60;;;30.30;59.60;;;;;;5013480;28;20045;-64
2023/06/18 09:07:54;;;;;;;9.45;6.10;;;30.40;58.70;;;;;;5013187;28;20042;-64
2023/06/18 09:10:21;;;;;;;9.00;6.57;;;30.50;52.60;;;;;;5013236;28;20045;-64
2023/06/18 09:12:47;;;;;;;6.90;5.72;;;30.60;52.20;;;;;;5012964;28;20046;-64
2023/06/18 09:15:13;;;;;;;8.35;6.22;;;30.70;50.00;;;;;;5013112;28;20064;-64
2023/06/18 09:17:40;;;;;;;9.20;6.90;;;30.70;52.00;;;;;;5013374;28;20046;-64
2023/06/18 09:20:07;;;;;;;8.75;6.05;;;30.90;49.90;;;;;;5012893;28;20045;-64
2023/06/18 09:22:47;;;;;;;9.60;6.05;;;30.80;49.00;;;;;;5013086;28;20038;-64
2023/06/18 09:25:22;;;;;;;7.93;6.10;;;30.90;46.10;;;;;;5013265;28;20038;-64
2023/06/18 09:27:49;;;;;;;9.27;6.68;;;30.70;46.80;;;;;;5012017;28;20041;-66
2023/06/18 09:30:19;;;;;;;10.70;6.40;;;30.70;47.50;;;;;;4995363;28;20087;-66
2023/06/18 09:32:47;;;;;;;9.23;6.43;;;30.60;49.20;;;;;;5013303;28;20034;-66
2023/06/18 09:35:15;;;;;;;10.07;6.53;;;30.60;46.90;;;;;;5014302;28;20120;-65
2023/06/18 09:37:41;;;;;;;9.52;6.10;;;30.70;46.00;;;;;;5015540;28;20045;-64
2023/06/18 09:40:21;;;;;;;8.10;6.15;;;30.70;46.10;;;;;;5015749;28;20038;-65
2023/06/18 09:42:51;;;;;;;8.43;6.43;;;31.00;45.80;;;;;;5017024;28;20046;-65
2023/06/18 09:45:18;;;;;;;7.93;6.27;;;31.00;44.40;;;;;;5016797;28;20038;-64
2023/06/18 09:47:47;;;;;;;8.80;5.88;;;30.90;45.60;;;;;;5015354;28;20045;-65
2023/06/18 09:50:13;;;;;;;8.40;6.25;;;31.10;44.00;;;;;;5016889;28;20041;-64
2023/06/18 09:52:48;;;;;;;8.02;5.90;;;31.20;44.70;;;;;;5016792;28;20056;-64
2023/06/18 09:55:33;;;;;;;8.77;6.18;;;31.50;43.40;;;;;;5016741;28;20046;-64
2023/06/18 09:58:00;;;;;;;6.97;5.55;;;31.30;43.00;;;;;;5016770;28;20042;-64
2023/06/18 10:00:26;;;;;;;9.18;6.28;;;31.30;43.60;;;;;;5016563;28;20042;-64
2023/06/18 10:02:52;;;;;;;8.43;5.78;;;31.50;43.90;;;;;;5016413;28;20052;-65
2023/06/18 10:05:18;;;;;;;7.88;5.90;;;31.80;44.60;;;;;;5016298;28;20245;-65
2023/06/18 10:07:47;;;;;;;8.88;6.53;;;32.10;44.00;;;;;;5016671;28;20163;-65
2023/06/18 10:10:14;;;;;;;7.28;5.57;;;32.40;43.90;;;;;;5016428;28;20064;-65
2023/06/18 10:12:48;;;;;;;9.43;5.93;;;32.50;43.90;;;;;;5014759;28;20057;-65
2023/06/18 10:15:15;;;;;;;8.13;5.72;;;32.60;43.20;;;;;;4998600;28;20093;-65
2023/06/18 10:17:48;;;;;;;7.85;5.78;;;32.60;42.00;;;;;;5016375;28;20077;-65
2023/06/18 10:20:15;;;;;;;9.45;6.00;;;32.80;42.10;;;;;;5016076;28;20033;-65
2023/06/18 10:22:49;;;;;;;8.05;5.93;;;32.70;41.30;;;;;;5016262;28;20402;-65
2023/06/18 10:25:15;;;;;;;8.48;5.80;;;32.30;41.20;;;;;;5016180;28;20402;-64
2023/06/18 10:27:42;;;;;;;8.70;6.10;;;32.10;41.10;;;;;;5015966;28;20144;-65
2023/06/18 10:30:08;;;;;;;9.48;6.03;;;31.90;42.80;;;;;;5015864;28;20131;-65
2023/06/18 10:32:36;;;;;;;9.65;6.05;;;31.70;43.10;;;;;;5015868;28;20050;-64
2023/06/18 10:35:09;;;;;;;8.63;6.38;;;31.70;42.50;;;;;;5016103;28;20038;-65
2023/06/18 10:37:38;;;;;;;9.57;6.25;;;31.70;43.10;;;;;;5015699;28;20038;-65
2023/06/18 10:40:04;;;;;;;8.02;6.30;;;31.60;42.30;;;;;;5015908;28;20116;-65
2023/06/18 10:42:34;;;;;;;8.95;6.30;;;31.90;42.70;;;;;;5015982;28;20041;-64
2023/06/18 10:45:14;;;;;;;9.20;6.10;;;32.10;41.90;;;;;;5015962;28;20092;-65
2023/06/18 10:47:42;;;;;;;7.10;5.65;;;32.10;40.00;;;;;;5015786;28;20050;-64
2023/06/18 10:50:07;;;;;;;9.23;5.75;;;32.00;41.50;;;;;;5015789;28;20490;-65
2023/06/18 10:52:37;;;;;;;8.65;6.20;;;32.10;39.70;;;;;;5015778;28;20038;-65
2023/06/18 10:55:18;;;;;;;9.18;6.20;;;31.90;40.10;;;;;;5014343;28;20038;-65
2023/06/18 10:57:46;;;;;;;7.70;6.07;;;31.90;39.90;;;;;;5015461;28;20038;-65
2023/06/18 11:00:16;;;;;;;8.25;6.07;;;31.70;40.20;;;;;;5015207;28;20084;-64
2023/06/18 11:02:43;;;;;;;9.15;6.00;;;31.70;40.70;;;;;;5015544;28;20436;-65
2023/06/18 11:05:31;;;;;;;8.35;6.07;;;31.70;41.10;;;;;;5015235;28;20046;-65
2023/06/18 11:08:01;;;;;;;7.90;5.82;;;31.70;40.30;;;;;;5008878;28;20081;-65
2023/06/18 11:10:49;;;;;;;7.57;5.80;;;31.20;41.00;;;;;;5015133;28;20054;-64
2023/06/18 11:13:16;;;;;;;9.15;5.70;;;30.90;40.60;;;;;;5014927;28;20057;-64
2023/06/18 11:16:11;;;;;;;6.85;4.93;;;31.10;40.70;;;;;;5015060;28;20129;-65
2023/06/18 11:18:40;;;;;;;9.23;5.80;;;31.30;40.20;;;;;;5013742;28;20041;-65
2023/06/18 11:21:07;;;;;;;7.50;5.68;;;31.50;40.60;;;;;;5014840;28;20073;-64
2023/06/18 11:23:33;;;;;;;7.97;5.60;;;31.70;41.70;;;;;;5015083;28;20490;-64
2023/06/18 11:25:59;;;;;;;7.22;5.60;;;31.90;38.10;;;;;;5015110;28;20042;-64
2023/06/18 11:28:25;;;;;;;7.65;5.85;;;31.70;38.70;;;;;;5015115;28;20379;-64
2023/06/18 11:30:59;;;;;;;8.48;5.43;;;31.60;38.80;;;;;;5013451;28;20212;-65
2023/06/18 11:33:26;;;;;;;8.77;5.50;;;31.50;39.40;;;;;;5014773;28;20060;-64
2023/06/18 11:35:55;;;;;;;7.40;5.70;;;31.40;39.10;;;;;;5013593;28;20056;-65
2023/06/18 11:38:22;;;;;;;7.78;5.78;;;31.40;38.60;;;;;;5014663;28;20049;-64
2023/06/18 11:40:52;;;;;;;8.10;6.00;;;31.30;39.40;;;;;;5014784;28;20048;-64
2023/06/18 11:43:19;;;;;;;7.35;5.38;;;31.30;38.90;;;;;;5014513;28;20046;-65
2023/06/18 11:45:50;;;;;;;8.30;6.35;;;31.00;38.90;;;;;;5014483;28;20081;-64
2023/06/18 11:48:19;;;;;;;7.65;5.60;;;30.90;39.50;;;;;;5014478;28;20050;-65
2023/06/18 11:50:46;;;;;;;11.15;6.43;;;30.90;40.80;;;;;;5014646;28;20042;-65
2023/06/18 11:53:13;;;;;;;7.93;5.90;;;30.70;41.10;;;;;;5014535;28;20629;-64
2023/06/18 11:55:41;;;;;;;8.05;6.20;;;30.60;41.40;;;;;;5014126;28;20050;-64
2023/06/18 11:58:07;;;;;;;8.45;6.00;;;30.70;42.00;;;;;;5014089;28;20069;-65
2023/06/18 12:00:34;;;;;;;15.38;6.68;;;30.80;41.90;;;;;;5014422;28;20040;-65
2023/06/18 12:03:03;;;;;;;10.18;5.90;;;30.80;41.30;;;;;;5014351;28;20116;-65
2023/06/18 12:05:38;;;;;;;13.70;6.00;;;30.60;41.20;;;;;;5014346;28;20048;-65
2023/06/18 12:08:13;;;;;;;9.07;6.30;;;30.60;40.70;;;;;;5014604;28;20038;-65
2023/06/18 12:10:40;;;;;;;8.05;6.22;;;30.60;41.10;;;;;;5012722;28;20046;-65
2023/06/18 12:13:15;;;;;;;8.77;6.70;;;30.40;41.20;;;;;;5012613;28;20077;-64
2023/06/18 12:15:50;;;;;;;7.45;6.35;;;30.30;42.50;;;;;;5014213;28;20121;-65
2023/06/18 12:18:26;;;;;;;9.70;7.18;;;30.10;42.20;;;;;;5012928;28;20454;-66
2023/06/18 12:20:52;;;;;;;8.35;6.72;;;30.00;43.40;;;;;;4996151;28;20037;-65
2023/06/18 12:23:18;;;;;;;8.20;6.43;;;30.10;44.10;;;;;;5014034;28;20065;-65
2023/06/18 12:25:44;;;;;;;8.60;6.88;;;30.20;43.80;;;;;;5014008;28;20080;-65
2023/06/18 12:28:10;;;;;;;9.63;6.40;;;30.40;43.60;;;;;;5012756;28;20045;-65
2023/06/18 12:30:38;;;;;;;8.35;6.45;;;30.50;43.70;;;;;;5013647;28;20045;-64
2023/06/18 12:33:11;;;;;;;9.48;6.43;;;30.50;42.30;;;;;;5012412;28;20045;-66
2023/06/18 12:35:44;;;;;;;8.60;6.20;;;30.30;43.10;;;;;;5012292;28;20072;-66